EJA Accident

Joe Jet Pilot

Well-known member
Joined
Dec 2, 2001
Posts
139
Total Time
5000+
I heard the airplane was damaged by fire. Is the crew ok?

IDENTIFICATION
Regis#: 397QS Make/Model: C560 Description: 560 Citation 5/5 Ultra (UC-35.
Date: 05/02/2002 Time: 1900

Event Type: Accident Highest Injury: None Mid Air: N Missing: N
Damage: Unknown

LOCATION
City: LEAKEY State: TX Country: US

DESCRIPTION
ACFT RAN OFF THE RWY AFTER LANDING AND SUSTAINED UNKNOWN DAMAGE, OTHER
CIRCUMSTANCES ARE UNKNOWN, LEAKEY, TX.

INJURY DATA Total Fatal: 0
# Crew: 2 Fat: 0 Ser: 0 Min: 0 Unk:
# Pass: 4 Fat: 0 Ser: 0 Min: 0 Unk:
# Grnd: Fat: 0 Ser: 0 Min: 0 Unk:

WEATHER: METAR KHDO 021851Z AUTO VRB03KT 8SM BJB031 30/22 A2974

OTHER DATA
Activity: Business Phase: Landing Operation: General Aviation

Departed: HOUSTON, TX Dep Date: 05/02/2002 Dep. Time:
Destination: LEAKEY, TX Flt Plan: UNK Wx Briefing: Y
Last Radio Cont: UNKN
Last Clearance: UNKN

FAA FSDO: SAN ANTONIO, TX (SW17) Entry date: 05/03/2002
 

OtterFO

Flying Again!!!!
Joined
Nov 25, 2001
Posts
201
Total Time
3300
According to the report no injuries where reported....

INJURY DATA Total Fatal: 0
# Crew: 2 Fat: 0 Ser: 0 Min: 0 Unk:
# Pass: 4 Fat: 0 Ser: 0 Min: 0 Unk:
# Grnd: Fat: 0 Ser: 0 Min: 0 Unk:
 
Top